Loma, Colorado
Current Conditions -  °F | °C
As of 1:53 AM on Thursday 23 Oct 2014 (Local Time) from KGJT Reporting Station
Clear Clear  
Wind Chill: 41°   Ceiling: Unl
Heat Index: 46°   Visibility: 10mi
Dew Point: 37°   Wind: 12mph
Humidity: 71%   Direction: 130°SE
Pressure: 30.18"   Gusts: NA
Location:  39.2°N, 108.82°W
Report Text: KGJT 230753Z AUTO 13010KT 10SM CLR 08/03 A3018 RMK AO2 SLP181 T00780028
Loading
Personal Weather Stations






























Interactive Weather Map
Tropical Storm Tracking
New forecast layout! Learn more

10-Day Weather Forecast

Advertisements
Track Severe Weather on mobile